Time;durP1;ratioP1;P1;durP2;ratioP2;P2;SDS_P1;SDS_P2;PMS_P1;PMS_P2;Temp;Humidity;BMP_temperature;BMP_pressure;BME280_temperature;BME280_humidity;BME280_pressure;Samples;Min_cycle;Max_cycle;Signal;HPM_P1;HPM_P2
2022/01/06 00:00:44;;;;;;;0.40;0.40;;;;;;;;;;1770549;79;26377;-32
2022/01/06 00:03:11;;;;;;;0.30;0.30;;;;;;;;;;1761210;79;26284;-33
2022/01/06 00:05:39;;;;;;;0.33;0.33;;;;;;;;;;1783659;79;26231;-32
2022/01/06 00:08:06;;;;;;;0.57;0.40;;;;;;;;;;1773636;79;26699;-35
2022/01/06 00:10:33;;;;;;;0.60;0.40;;;;;;;;;;1774926;79;26363;-33
2022/01/06 00:13:09;;;;;;;0.75;0.30;;;;;;;;;;1772738;79;26351;-33
2022/01/06 00:25:47;;;;;;;0.40;0.40;;;;;;;;;;1751742;80;26423;-33
2022/01/06 00:28:14;;;;;;;0.30;0.30;;;;;;;;;;1766015;80;26303;-31
2022/01/06 00:30:42;;;;;;;0.40;0.40;;;;;;;;;;1758790;79;26774;-35
2022/01/06 00:33:09;;;;;;;0.40;0.40;;;;;;;;;;1753490;79;26292;-31
2022/01/06 00:35:36;;;;;;;0.33;0.30;;;;;;;;;;1749073;80;26286;-34
2022/01/06 00:38:08;;;;;;;0.40;0.40;;;;;;;;;;1754811;80;26272;-34
2022/01/06 00:40:36;;;;;;;0.20;0.20;;;;;;;;;;1758946;80;26349;-35
2022/01/06 00:43:04;;;;;;;0.30;0.30;;;;;;;;;;1750366;80;26765;-33
2022/01/06 00:45:32;;;;;;;0.30;0.30;;;;;;;;;;1763064;80;26279;-32
2022/01/06 00:48:00;;;;;;;0.30;0.30;;;;;;;;;;1755393;80;26294;-32
2022/01/06 00:50:28;;;;;;;0.50;0.30;;;;;;;;;;1754465;80;26259;-32
2022/01/06 00:52:55;;;;;;;1.07;0.30;;;;;;;;;;1767616;80;26344;-32
2022/01/06 00:55:22;;;;;;;0.20;0.20;;;;;;;;;;1766238;80;26423;-31
2022/01/06 00:57:50;;;;;;;0.30;0.28;;;;;;;;;;1750705;81;26306;-36
2022/01/06 01:00:17;;;;;;;0.40;0.40;;;;;;;;;;1773983;79;26716;-33
2022/01/06 01:02:44;;;;;;;0.53;0.30;;;;;;;;;;1765433;80;26358;-34
2022/01/06 01:05:12;;;;;;;0.40;0.40;;;;;;;;;;1768390;80;26303;-33
2022/01/06 01:07:39;;;;;;;0.53;0.30;;;;;;;;;;1754971;80;26342;-31
2022/01/06 01:10:07;;;;;;;0.30;0.30;;;;;;;;;;1768880;79;26268;-31
2022/01/06 01:12:34;;;;;;;0.13;0.13;;;;;;;;;;1749780;80;27368;-33
2022/01/06 01:15:09;;;;;;;0.30;0.30;;;;;;;;;;1763605;79;26754;-34
2022/01/06 01:17:38;;;;;;;0.20;0.20;;;;;;;;;;1772879;79;26244;-35
2022/01/06 01:20:06;;;;;;;0.30;0.30;;;;;;;;;;1768624;79;26299;-35
2022/01/06 01:22:33;;;;;;;0.30;0.30;;;;;;;;;;1805028;79;26373;-32
2022/01/06 01:25:01;;;;;;;0.20;0.20;;;;;;;;;;1785869;79;26276;-32
2022/01/06 01:27:34;;;;;;;0.30;0.30;;;;;;;;;;1785431;79;26272;-33
2022/01/06 01:30:01;;;;;;;0.28;0.28;;;;;;;;;;1771925;79;26418;-33
2022/01/06 01:32:33;;;;;;;0.30;0.30;;;;;;;;;;1760482;79;26881;-36
2022/01/06 01:35:01;;;;;;;0.40;0.40;;;;;;;;;;1781480;79;26282;-35
2022/01/06 01:37:27;;;;;;;0.30;0.30;;;;;;;;;;1781108;79;26791;-33
2022/01/06 01:39:55;;;;;;;0.20;0.20;;;;;;;;;;1780184;79;26279;-32
2022/01/06 01:42:23;;;;;;;0.20;0.20;;;;;;;;;;1785901;79;26456;-35
2022/01/06 01:44:51;;;;;;;0.20;0.20;;;;;;;;;;1777660;79;26313;-35
2022/01/06 01:47:29;;;;;;;0.20;0.20;;;;;;;;;;1775220;79;26259;-32
2022/01/06 01:49:56;;;;;;;0.30;0.30;;;;;;;;;;1771738;79;26804;-35
2022/01/06 01:52:20;;;;;;;0.20;0.20;;;;;;;;;;1784760;79;26400;-33
2022/01/06 01:54:47;;;;;;;0.20;0.20;;;;;;;;;;1771256;79;26224;-34
2022/01/06 01:57:15;;;;;;;0.30;0.30;;;;;;;;;;1784268;79;26286;-32
2022/01/06 01:59:44;;;;;;;0.15;0.10;;;;;;;;;;1776895;79;26295;-34
2022/01/06 02:02:11;;;;;;;0.40;0.40;;;;;;;;;;1770182;79;26350;-32
2022/01/06 02:04:38;;;;;;;0.20;0.20;;;;;;;;;;1783539;80;26357;-33
2022/01/06 02:07:05;;;;;;;0.23;0.20;;;;;;;;;;1772260;79;26367;-32
2022/01/06 02:09:33;;;;;;;0.23;0.23;;;;;;;;;;1762399;79;26242;-33
2022/01/06 02:12:01;;;;;;;0.15;0.15;;;;;;;;;;1784028;79;26745;-33
2022/01/06 02:14:28;;;;;;;0.23;0.23;;;;;;;;;;1765173;80;26275;-31
2022/01/06 02:16:55;;;;;;;0.30;0.30;;;;;;;;;;1756389;80;26310;-32
2022/01/06 02:19:23;;;;;;;0.20;0.20;;;;;;;;;;1747372;80;26331;-34
2022/01/06 02:21:50;;;;;;;0.20;0.20;;;;;;;;;;1780672;80;26300;-32
2022/01/06 02:24:17;;;;;;;0.20;0.20;;;;;;;;;;1750611;80;26301;-31
2022/01/06 02:26:44;;;;;;;0.20;0.20;;;;;;;;;;1752302;80;26341;-36
2022/01/06 02:29:12;;;;;;;0.20;0.20;;;;;;;;;;1743994;81;26310;-34
2022/01/06 02:31:40;;;;;;;0.10;0.10;;;;;;;;;;1759038;80;26275;-32
2022/01/06 02:34:08;;;;;;;0.25;0.25;;;;;;;;;;1756214;79;26306;-36
2022/01/06 02:36:36;;;;;;;0.10;0.10;;;;;;;;;;1766355;80;26299;-31
2022/01/06 02:39:03;;;;;;;0.17;0.17;;;;;;;;;;1761355;80;26293;-32
2022/01/06 02:41:32;;;;;;;0.30;0.30;;;;;;;;;;1756170;80;26864;-33
2022/01/06 02:44:00;;;;;;;0.20;0.20;;;;;;;;;;1763011;79;26709;-32
2022/01/06 02:46:28;;;;;;;0.20;0.20;;;;;;;;;;1746206;80;26910;-33
2022/01/06 02:48:55;;;;;;;0.20;0.20;;;;;;;;;;1764590;80;26353;-33
2022/01/06 02:51:22;;;;;;;0.20;0.20;;;;;;;;;;1756774;80;26326;-34
2022/01/06 02:53:53;;;;;;;0.20;0.20;;;;;;;;;;1763656;80;26238;-32
2022/01/06 02:56:20;;;;;;;0.10;0.10;;;;;;;;;;1763672;80;26322;-32
2022/01/06 02:58:47;;;;;;;0.20;0.20;;;;;;;;;;1765198;80;26597;-37
2022/01/06 03:01:15;;;;;;;0.20;0.20;;;;;;;;;;1763532;79;26355;-33
2022/01/06 03:03:42;;;;;;;0.20;0.20;;;;;;;;;;1755475;80;27500;-35
2022/01/06 03:06:10;;;;;;;0.17;0.17;;;;;;;;;;1761720;80;26286;-31
2022/01/06 03:08:37;;;;;;;0.10;0.10;;;;;;;;;;1757665;80;26715;-32
2022/01/06 03:11:07;;;;;;;0.20;0.20;;;;;;;;;;1784000;79;26311;-33
2022/01/06 03:13:34;;;;;;;0.23;0.23;;;;;;;;;;1769040;80;26393;-36
2022/01/06 03:16:02;;;;;;;0.10;0.10;;;;;;;;;;1782901;79;26320;-36
2022/01/06 03:18:30;;;;;;;0.20;0.20;;;;;;;;;;1770135;80;26361;-33
2022/01/06 03:20:58;;;;;;;0.10;0.10;;;;;;;;;;1765659;80;26281;-31
2022/01/06 03:23:25;;;;;;;0.20;0.20;;;;;;;;;;1770134;80;26318;-33
2022/01/06 03:25:52;;;;;;;0.20;0.20;;;;;;;;;;1776875;80;26335;-34
2022/01/06 03:28:20;;;;;;;0.10;0.10;;;;;;;;;;1757929;78;26313;-34
2022/01/06 03:30:47;;;;;;;0.85;0.20;;;;;;;;;;1766519;80;26335;-33
2022/01/06 03:33:14;;;;;;;0.17;0.17;;;;;;;;;;1753119;80;26356;-33
2022/01/06 03:35:41;;;;;;;0.35;0.20;;;;;;;;;;1758373;80;26362;-32
2022/01/06 03:38:09;;;;;;;0.17;0.17;;;;;;;;;;1769025;79;26244;-31
2022/01/06 03:40:37;;;;;;;0.28;0.28;;;;;;;;;;1756026;80;26295;-32
2022/01/06 03:43:04;;;;;;;0.10;0.10;;;;;;;;;;1758322;80;26766;-32
2022/01/06 03:45:32;;;;;;;0.05;0.05;;;;;;;;;;1772039;79;26272;-33
2022/01/06 03:48:00;;;;;;;0.15;0.10;;;;;;;;;;1755031;80;26307;-33
2022/01/06 03:50:28;;;;;;;0.20;0.20;;;;;;;;;;1759587;80;26342;-32
2022/01/06 03:52:55;;;;;;;0.20;0.20;;;;;;;;;;1763691;80;26283;-35
2022/01/06 03:55:23;;;;;;;0.20;0.20;;;;;;;;;;1760049;80;26590;-32
2022/01/06 03:57:50;;;;;;;0.30;0.30;;;;;;;;;;1762434;80;26295;-32
2022/01/06 04:00:19;;;;;;;0.20;0.20;;;;;;;;;;1772073;79;26287;-34
2022/01/06 04:02:47;;;;;;;0.20;0.20;;;;;;;;;;1763065;81;26278;-37
2022/01/06 04:05:15;;;;;;;0.13;0.13;;;;;;;;;;1755981;80;26335;-35
2022/01/06 04:07:42;;;;;;;0.10;0.10;;;;;;;;;;1752653;80;26252;-32
2022/01/06 04:10:10;;;;;;;0.13;0.13;;;;;;;;;;1760015;79;26803;-32
2022/01/06 04:12:38;;;;;;;0.10;0.10;;;;;;;;;;1758556;80;26346;-33
2022/01/06 04:15:13;;;;;;;0.10;0.10;;;;;;;;;;1746203;80;26391;-32
2022/01/06 04:17:36;;;;;;;0.28;0.28;;;;;;;;;;1730640;80;26300;-37
2022/01/06 04:20:07;;;;;;;0.10;0.10;;;;;;;;;;1748626;81;26340;-33
2022/01/06 04:22:34;;;;;;;0.20;0.20;;;;;;;;;;1744019;80;26379;-35
2022/01/06 04:25:02;;;;;;;0.10;0.10;;;;;;;;;;1738558;80;26651;-32
2022/01/06 04:27:29;;;;;;;0.20;0.20;;;;;;;;;;1738167;80;26300;-33
2022/01/06 04:29:56;;;;;;;1.07;0.10;;;;;;;;;;1742509;80;26820;-34
2022/01/06 04:32:23;;;;;;;0.13;0.13;;;;;;;;;;1745606;80;26778;-32
2022/01/06 04:34:51;;;;;;;0.10;0.10;;;;;;;;;;1746108;80;26739;-37
2022/01/06 04:37:18;;;;;;;0.20;0.20;;;;;;;;;;1751061;80;26214;-33
2022/01/06 04:39:45;;;;;;;0.55;0.25;;;;;;;;;;1769119;80;26679;-34
2022/01/06 04:42:12;;;;;;;0.20;0.20;;;;;;;;;;1733414;82;26288;-33
2022/01/06 04:44:40;;;;;;;0.10;0.10;;;;;;;;;;1748519;80;26373;-31
2022/01/06 04:47:07;;;;;;;0.17;0.17;;;;;;;;;;1735991;80;26282;-34
2022/01/06 04:49:34;;;;;;;0.10;0.10;;;;;;;;;;1743854;81;26610;-32
2022/01/06 04:52:02;;;;;;;0.20;0.20;;;;;;;;;;1746448;80;26295;-33
2022/01/06 04:54:29;;;;;;;0.30;0.30;;;;;;;;;;1742684;80;26817;-32
2022/01/06 04:56:56;;;;;;;0.20;0.20;;;;;;;;;;1731146;80;26292;-33
2022/01/06 04:59:24;;;;;;;0.20;0.20;;;;;;;;;;1744481;80;26284;-33
2022/01/06 05:01:51;;;;;;;0.10;0.10;;;;;;;;;;1741120;80;26654;-35
2022/01/06 05:04:18;;;;;;;0.85;0.20;;;;;;;;;;1734582;80;26846;-33
2022/01/06 05:06:46;;;;;;;0.20;0.20;;;;;;;;;;1732437;80;26740;-32
2022/01/06 05:09:15;;;;;;;0.20;0.20;;;;;;;;;;1743907;80;26945;-34
2022/01/06 05:11:42;;;;;;;0.17;0.17;;;;;;;;;;1745983;80;26362;-31
2022/01/06 05:14:09;;;;;;;0.20;0.20;;;;;;;;;;1746456;80;26353;-32
2022/01/06 05:16:37;;;;;;;0.10;0.10;;;;;;;;;;1753612;80;26395;-35
2022/01/06 05:19:05;;;;;;;0.20;0.10;;;;;;;;;;1742481;80;26340;-33
2022/01/06 05:21:33;;;;;;;0.20;0.20;;;;;;;;;;1755609;80;26348;-33
2022/01/06 05:24:01;;;;;;;0.20;0.20;;;;;;;;;;1746324;81;26965;-33
2022/01/06 05:26:28;;;;;;;0.13;0.13;;;;;;;;;;1749019;80;26463;-32
2022/01/06 05:28:55;;;;;;;0.10;0.10;;;;;;;;;;1731827;80;26749;-33
2022/01/06 05:31:23;;;;;;;0.10;0.10;;;;;;;;;;1741017;80;26800;-31
2022/01/06 05:33:50;;;;;;;0.20;0.20;;;;;;;;;;1737227;80;26753;-34
2022/01/06 05:36:17;;;;;;;0.20;0.20;;;;;;;;;;1748616;80;26527;-33
2022/01/06 05:38:44;;;;;;;0.40;0.20;;;;;;;;;;1744849;80;26257;-32
2022/01/06 05:41:12;;;;;;;0.20;0.20;;;;;;;;;;1742657;80;26276;-32
2022/01/06 05:43:39;;;;;;;0.20;0.20;;;;;;;;;;1751158;80;26385;-33
2022/01/06 05:46:07;;;;;;;0.20;0.20;;;;;;;;;;1739568;80;26648;-35
2022/01/06 05:48:34;;;;;;;0.13;0.13;;;;;;;;;;1742904;81;26238;-33
2022/01/06 05:51:01;;;;;;;0.70;0.20;;;;;;;;;;1733255;80;26233;-36
2022/01/06 05:53:30;;;;;;;0.10;0.10;;;;;;;;;;1752224;80;26368;-31
2022/01/06 05:55:57;;;;;;;0.13;0.13;;;;;;;;;;1744825;80;26824;-35
2022/01/06 05:58:24;;;;;;;0.10;0.10;;;;;;;;;;1752699;80;26968;-34
2022/01/06 06:00:51;;;;;;;0.10;0.10;;;;;;;;;;1752115;80;26667;-33
2022/01/06 06:03:18;;;;;;;0.23;0.23;;;;;;;;;;1741882;80;26238;-32
2022/01/06 06:05:46;;;;;;;0.23;0.10;;;;;;;;;;1753786;81;26262;-32
2022/01/06 06:08:13;;;;;;;0.20;0.20;;;;;;;;;;1738471;80;26359;-33
2022/01/06 06:10:40;;;;;;;0.20;0.20;;;;;;;;;;1759809;80;26269;-31
2022/01/06 06:13:08;;;;;;;0.17;0.17;;;;;;;;;;1745255;81;26318;-34
2022/01/06 06:15:35;;;;;;;0.17;0.17;;;;;;;;;;1736177;80;26609;-33
2022/01/06 06:18:03;;;;;;;0.20;0.20;;;;;;;;;;1738787;80;26304;-32
2022/01/06 06:20:31;;;;;;;0.20;0.20;;;;;;;;;;1749097;80;26657;-33
2022/01/06 06:22:59;;;;;;;0.20;0.20;;;;;;;;;;1740439;80;26278;-34
2022/01/06 06:25:26;;;;;;;0.20;0.20;;;;;;;;;;1746029;80;26563;-37
2022/01/06 06:27:53;;;;;;;0.20;0.20;;;;;;;;;;1753657;80;26222;-34
2022/01/06 06:30:21;;;;;;;1.37;0.20;;;;;;;;;;1735453;82;26277;-33
2022/01/06 06:32:48;;;;;;;0.10;0.10;;;;;;;;;;1741987;80;26274;-31
2022/01/06 06:35:15;;;;;;;0.10;0.10;;;;;;;;;;1739374;80;26251;-33
2022/01/06 06:37:42;;;;;;;0.10;0.10;;;;;;;;;;1738782;82;26364;-37
2022/01/06 06:40:11;;;;;;;0.10;0.10;;;;;;;;;;1751706;80;26406;-34
2022/01/06 06:42:39;;;;;;;0.10;0.10;;;;;;;;;;1735063;80;26320;-35
2022/01/06 06:45:08;;;;;;;0.10;0.10;;;;;;;;;;1741306;80;26272;-32
2022/01/06 06:47:35;;;;;;;0.25;0.20;;;;;;;;;;1736941;80;26777;-33
2022/01/06 06:50:03;;;;;;;0.20;0.20;;;;;;;;;;1753622;80;26829;-34
2022/01/06 06:52:31;;;;;;;0.25;0.20;;;;;;;;;;1745345;80;26278;-31
2022/01/06 06:54:58;;;;;;;0.20;0.20;;;;;;;;;;1743357;81;26383;-34
2022/01/06 06:57:25;;;;;;;0.42;0.10;;;;;;;;;;1731235;80;26233;-32
2022/01/06 06:59:53;;;;;;;0.10;0.10;;;;;;;;;;1739842;80;26288;-34
2022/01/06 07:02:20;;;;;;;0.10;0.10;;;;;;;;;;1732990;80;26304;-33
2022/01/06 07:04:47;;;;;;;0.20;0.20;;;;;;;;;;1743741;80;26359;-32
2022/01/06 07:07:14;;;;;;;0.98;0.20;;;;;;;;;;1743428;80;26774;-32
2022/01/06 07:09:42;;;;;;;0.10;0.10;;;;;;;;;;1742635;80;26693;-31
2022/01/06 07:12:09;;;;;;;0.10;0.10;;;;;;;;;;1734495;80;27392;-34
2022/01/06 07:14:37;;;;;;;0.20;0.20;;;;;;;;;;1748894;80;26317;-35
2022/01/06 07:17:04;;;;;;;0.10;0.10;;;;;;;;;;1744803;79;26341;-33
2022/01/06 07:19:31;;;;;;;0.20;0.20;;;;;;;;;;1756203;80;26306;-36
2022/01/06 07:21:58;;;;;;;0.10;0.10;;;;;;;;;;1752062;80;26368;-36
2022/01/06 07:24:26;;;;;;;0.10;0.10;;;;;;;;;;1753719;81;26801;-37
2022/01/06 07:26:53;;;;;;;0.20;0.20;;;;;;;;;;1752041;81;26681;-32
2022/01/06 07:29:20;;;;;;;0.35;0.10;;;;;;;;;;1760834;80;26373;-32
2022/01/06 07:31:47;;;;;;;0.28;0.28;;;;;;;;;;1761551;79;26260;-36
2022/01/06 07:34:15;;;;;;;0.17;0.17;;;;;;;;;;1754695;80;26286;-34
2022/01/06 07:36:42;;;;;;;0.13;0.13;;;;;;;;;;1752289;79;26238;-34
2022/01/06 07:39:09;;;;;;;0.20;0.20;;;;;;;;;;1759676;80;26286;-32
2022/01/06 07:41:36;;;;;;;0.20;0.20;;;;;;;;;;1748375;80;26279;-36
2022/01/06 07:44:07;;;;;;;0.28;0.28;;;;;;;;;;1755664;79;26255;-33
2022/01/06 07:46:35;;;;;;;0.13;0.13;;;;;;;;;;1757553;80;26407;-31
2022/01/06 07:49:03;;;;;;;0.25;0.25;;;;;;;;;;1756962;80;26585;-33
2022/01/06 07:51:31;;;;;;;0.10;0.10;;;;;;;;;;1760714;80;26594;-33
2022/01/06 07:53:59;;;;;;;0.25;0.25;;;;;;;;;;1765742;80;27682;-35
2022/01/06 07:56:27;;;;;;;0.53;0.30;;;;;;;;;;1758003;80;26295;-32
2022/01/06 07:58:55;;;;;;;0.90;0.30;;;;;;;;;;1758514;80;26318;-36
2022/01/06 08:01:23;;;;;;;0.10;0.10;;;;;;;;;;1780658;79;26759;-35
2022/01/06 08:03:50;;;;;;;0.20;0.20;;;;;;;;;;1754710;80;26267;-31
2022/01/06 08:06:17;;;;;;;0.20;0.20;;;;;;;;;;1765980;79;25764;-33
2022/01/06 08:08:45;;;;;;;0.17;0.17;;;;;;;;;;1759468;80;26276;-33
2022/01/06 08:11:12;;;;;;;0.10;0.10;;;;;;;;;;1767820;79;26354;-32
2022/01/06 08:13:40;;;;;;;0.00;0.00;;;;;;;;;;1761062;80;26314;-33
2022/01/06 08:16:08;;;;;;;0.20;0.20;;;;;;;;;;1748156;80;26247;-31
2022/01/06 08:18:35;;;;;;;0.00;0.00;;;;;;;;;;1768544;79;26454;-31
2022/01/06 08:21:02;;;;;;;0.10;0.10;;;;;;;;;;1780883;79;26260;-36
2022/01/06 08:23:30;;;;;;;0.10;0.10;;;;;;;;;;1770742;79;26822;-32
2022/01/06 08:25:57;;;;;;;0.20;0.20;;;;;;;;;;1775660;79;26804;-34
2022/01/06 08:28:24;;;;;;;0.20;0.20;;;;;;;;;;1772998;79;26294;-32
2022/01/06 08:30:52;;;;;;;0.10;0.10;;;;;;;;;;1772982;79;26830;-32
2022/01/06 08:33:20;;;;;;;0.10;0.10;;;;;;;;;;1773103;79;26652;-33
2022/01/06 08:35:47;;;;;;;0.20;0.20;;;;;;;;;;1776380;79;26277;-32
2022/01/06 08:38:15;;;;;;;0.10;0.10;;;;;;;;;;1781087;79;26330;-34
2022/01/06 08:40:42;;;;;;;0.20;0.20;;;;;;;;;;1772677;79;26747;-36
2022/01/06 08:43:09;;;;;;;0.25;0.25;;;;;;;;;;1778841;79;26251;-31
2022/01/06 08:45:37;;;;;;;0.17;0.17;;;;;;;;;;1774056;79;26279;-32
2022/01/06 08:48:04;;;;;;;0.10;0.10;;;;;;;;;;1775598;79;26301;-34
2022/01/06 08:50:32;;;;;;;0.20;0.20;;;;;;;;;;1775886;79;26380;-34
2022/01/06 08:52:59;;;;;;;0.20;0.20;;;;;;;;;;1769819;79;26297;-33
2022/01/06 08:55:27;;;;;;;0.20;0.20;;;;;;;;;;1777157;79;26387;-35
2022/01/06 08:57:56;;;;;;;0.17;0.17;;;;;;;;;;1780717;79;26260;-35
2022/01/06 09:00:23;;;;;;;0.10;0.10;;;;;;;;;;1778062;79;26292;-31
2022/01/06 09:02:51;;;;;;;0.20;0.20;;;;;;;;;;1765734;80;26314;-35
2022/01/06 09:05:18;;;;;;;0.23;0.23;;;;;;;;;;1763469;80;26842;-33
2022/01/06 09:07:45;;;;;;;0.57;0.10;;;;;;;;;;1766676;79;26397;-34
2022/01/06 09:10:13;;;;;;;0.10;0.10;;;;;;;;;;1771009;79;26274;-33
2022/01/06 09:12:41;;;;;;;0.30;0.30;;;;;;;;;;1767526;79;26239;-35
2022/01/06 09:15:09;;;;;;;0.35;0.28;;;;;;;;;;1775930;79;27438;-33
2022/01/06 09:17:38;;;;;;;1.77;0.20;;;;;;;;;;1767206;79;26431;-32
2022/01/06 09:20:07;;;;;;;4.15;0.40;;;;;;;;;;1784176;80;26794;-32
2022/01/06 09:22:34;;;;;;;2.67;0.40;;;;;;;;;;1784643;79;26298;-31
2022/01/06 09:25:01;;;;;;;0.50;0.40;;;;;;;;;;1783004;79;26338;-37
2022/01/06 09:27:30;;;;;;;0.20;0.20;;;;;;;;;;1773939;80;26796;-35
2022/01/06 09:29:58;;;;;;;2.12;0.40;;;;;;;;;;1774794;79;25837;-33
2022/01/06 09:32:26;;;;;;;1.77;0.30;;;;;;;;;;1767176;79;26293;-31
2022/01/06 09:34:53;;;;;;;2.83;0.65;;;;;;;;;;1772215;80;26884;-33
2022/01/06 09:37:21;;;;;;;0.45;0.42;;;;;;;;;;1772427;79;26565;-33
2022/01/06 09:39:48;;;;;;;0.30;0.30;;;;;;;;;;1776167;79;26238;-31
2022/01/06 09:42:16;;;;;;;1.75;0.47;;;;;;;;;;1763753;80;26792;-34
2022/01/06 09:44:43;;;;;;;1.02;0.30;;;;;;;;;;1773936;79;26388;-32
2022/01/06 09:47:11;;;;;;;0.85;0.30;;;;;;;;;;1763583;79;27504;-32
2022/01/06 09:49:40;;;;;;;0.40;0.40;;;;;;;;;;1771126;79;26285;-33
2022/01/06 09:52:08;;;;;;;0.50;0.30;;;;;;;;;;1765653;80;26365;-34
2022/01/06 09:54:36;;;;;;;0.30;0.30;;;;;;;;;;1761040;80;26646;-33
2022/01/06 09:57:05;;;;;;;0.30;0.30;;;;;;;;;;1766907;79;26851;-37
2022/01/06 09:59:33;;;;;;;0.40;0.40;;;;;;;;;;1767749;79;26691;-32
2022/01/06 10:02:00;;;;;;;0.70;0.28;;;;;;;;;;1771995;80;26298;-32
2022/01/06 10:04:29;;;;;;;0.80;0.28;;;;;;;;;;1766946;79;26333;-33
2022/01/06 10:07:00;;;;;;;0.47;0.40;;;;;;;;;;1769168;79;26254;-35
2022/01/06 10:09:27;;;;;;;3.12;0.30;;;;;;;;;;1785251;79;26648;-33
2022/01/06 10:11:56;;;;;;;0.53;0.33;;;;;;;;;;1771150;79;26288;-31
2022/01/06 10:14:32;;;;;;;1.82;0.72;;;;;;;;;;1775354;79;26342;-38
2022/01/06 10:16:53;;;;;;;0.35;0.35;;;;;;;;;;1779871;79;26349;-33
2022/01/06 10:19:20;;;;;;;0.57;0.30;;;;;;;;;;1758223;79;26324;-33
2022/01/06 10:21:48;;;;;;;0.30;0.30;;;;;;;;;;1780765;80;26241;-33
2022/01/06 10:24:21;;;;;;;0.20;0.20;;;;;;;;;;1764133;80;26385;-33
2022/01/06 10:26:56;;;;;;;0.57;0.33;;;;;;;;;;1768458;80;26377;-32
2022/01/06 10:29:24;;;;;;;0.20;0.20;;;;;;;;;;1758749;80;26609;-33
2022/01/06 10:31:52;;;;;;;0.57;0.20;;;;;;;;;;1758569;80;26298;-34
2022/01/06 10:34:19;;;;;;;0.55;0.37;;;;;;;;;;1745301;80;26707;-31
2022/01/06 10:36:48;;;;;;;0.35;0.35;;;;;;;;;;1743950;80;27134;-34
2022/01/06 10:39:15;;;;;;;0.85;0.30;;;;;;;;;;1762680;79;26814;-34
2022/01/06 10:41:42;;;;;;;0.33;0.30;;;;;;;;;;1751612;80;26348;-35
2022/01/06 10:44:12;;;;;;;0.13;0.13;;;;;;;;;;1762078;79;26261;-35
2022/01/06 10:46:43;;;;;;;1.90;0.30;;;;;;;;;;1752933;79;26368;-36
2022/01/06 10:49:17;;;;;;;0.30;0.30;;;;;;;;;;1755426;80;26337;-33
2022/01/06 10:51:46;;;;;;;0.23;0.23;;;;;;;;;;1745598;81;26479;-32
2022/01/06 10:54:21;;;;;;;0.23;0.13;;;;;;;;;;1750348;80;26326;-33
2022/01/06 10:56:59;;;;;;;0.30;0.30;;;;;;;;;;1764968;80;26298;-37
2022/01/06 10:59:27;;;;;;;0.20;0.20;;;;;;;;;;1761049;79;26408;-33
2022/01/06 11:01:55;;;;;;;0.37;0.35;;;;;;;;;;1752582;79;26405;-32
2022/01/06 11:04:22;;;;;;;0.55;0.20;;;;;;;;;;1752255;80;26296;-33
2022/01/06 11:06:51;;;;;;;0.33;0.33;;;;;;;;;;1752651;80;26298;-34
2022/01/06 11:09:19;;;;;;;0.30;0.30;;;;;;;;;;1750522;79;26766;-32
2022/01/06 11:14:28;;;;;;;2.50;0.20;;;;;;;;;;1757989;80;26334;-31
2022/01/06 11:16:55;;;;;;;0.47;0.30;;;;;;;;;;1751180;80;26368;-32
2022/01/06 11:19:27;;;;;;;0.30;0.30;;;;;;;;;;1755331;80;26313;-31
2022/01/06 11:21:56;;;;;;;0.30;0.23;;;;;;;;;;1777612;79;26290;-31
2022/01/06 11:24:24;;;;;;;1.67;0.42;;;;;;;;;;1785751;79;26239;-36
2022/01/06 11:26:59;;;;;;;2.17;0.30;;;;;;;;;;1781814;79;26295;-33
2022/01/06 11:29:30;;;;;;;0.20;0.20;;;;;;;;;;1767360;79;26330;-31
2022/01/06 11:31:57;;;;;;;0.33;0.30;;;;;;;;;;1770836;79;26325;-31
2022/01/06 11:34:26;;;;;;;0.62;0.30;;;;;;;;;;1768072;79;26302;-32
2022/01/06 11:36:55;;;;;;;0.03;0.03;;;;;;;;;;1781127;79;26286;-33
2022/01/06 11:39:24;;;;;;;0.20;0.20;;;;;;;;;;1782962;79;27429;-33
2022/01/06 11:41:53;;;;;;;0.25;0.20;;;;;;;;;;1769346;79;26375;-33
2022/01/06 11:44:22;;;;;;;0.20;0.20;;;;;;;;;;1788343;79;26358;-31
2022/01/06 11:46:50;;;;;;;1.95;0.40;;;;;;;;;;1770136;79;26356;-35
2022/01/06 11:49:19;;;;;;;1.67;0.40;;;;;;;;;;1774493;79;26267;-32
2022/01/06 11:51:46;;;;;;;0.13;0.13;;;;;;;;;;1775450;79;26367;-32
2022/01/06 11:54:15;;;;;;;0.37;0.28;;;;;;;;;;1773408;79;26289;-32
2022/01/06 11:56:49;;;;;;;0.37;0.37;;;;;;;;;;1774078;79;26652;-33
2022/01/06 11:59:18;;;;;;;0.30;0.30;;;;;;;;;;1768932;79;26333;-32
2022/01/06 12:01:47;;;;;;;0.25;0.25;;;;;;;;;;1785797;79;26400;-32
2022/01/06 12:04:16;;;;;;;0.20;0.20;;;;;;;;;;1769467;79;26290;-32
2022/01/06 12:06:43;;;;;;;0.20;0.20;;;;;;;;;;1772969;79;26784;-33
2022/01/06 12:09:23;;;;;;;0.53;0.25;;;;;;;;;;1779393;79;26778;-33
2022/01/06 12:11:55;;;;;;;0.30;0.30;;;;;;;;;;1767222;79;26312;-36
2022/01/06 12:14:26;;;;;;;0.30;0.30;;;;;;;;;;1774500;79;27417;-32
2022/01/06 12:16:55;;;;;;;0.70;0.23;;;;;;;;;;1781995;79;26263;-34
2022/01/06 12:19:25;;;;;;;1.27;0.20;;;;;;;;;;1764057;80;26346;-32
2022/01/06 12:21:53;;;;;;;0.20;0.20;;;;;;;;;;1749502;80;26300;-32
2022/01/06 12:24:20;;;;;;;0.20;0.20;;;;;;;;;;1763745;79;26347;-33
2022/01/06 12:26:48;;;;;;;0.30;0.30;;;;;;;;;;1761139;80;26297;-34
2022/01/06 12:29:17;;;;;;;0.30;0.30;;;;;;;;;;1753862;80;26275;-31
2022/01/06 12:31:45;;;;;;;0.20;0.20;;;;;;;;;;1767577;80;26310;-34
2022/01/06 12:34:14;;;;;;;0.30;0.30;;;;;;;;;;1754511;79;26759;-32
2022/01/06 12:36:43;;;;;;;0.30;0.30;;;;;;;;;;1754426;80;26337;-31
2022/01/06 12:39:18;;;;;;;0.20;0.20;;;;;;;;;;1762265;79;26298;-34
2022/01/06 12:41:46;;;;;;;0.30;0.30;;;;;;;;;;1758109;80;26369;-36
2022/01/06 12:44:21;;;;;;;0.40;0.40;;;;;;;;;;1758729;79;26246;-35
2022/01/06 12:46:48;;;;;;;1.02;0.40;;;;;;;;;;1749597;80;26302;-35
2022/01/06 12:49:16;;;;;;;0.62;0.55;;;;;;;;;;1754263;80;26352;-32
2022/01/06 12:51:45;;;;;;;0.30;0.30;;;;;;;;;;1765020;80;26308;-33
2022/01/06 12:54:17;;;;;;;1.55;0.50;;;;;;;;;;1770062;80;26283;-33
2022/01/06 12:56:47;;;;;;;0.95;0.50;;;;;;;;;;1769211;80;26299;-34
2022/01/06 12:59:16;;;;;;;0.72;0.42;;;;;;;;;;1766169;79;26300;-34
2022/01/06 13:01:44;;;;;;;0.40;0.40;;;;;;;;;;1759514;79;26307;-33
2022/01/06 13:04:13;;;;;;;0.72;0.60;;;;;;;;;;1754946;80;26809;-36
2022/01/06 13:06:42;;;;;;;0.47;0.47;;;;;;;;;;1750577;80;26282;-33
2022/01/06 13:09:17;;;;;;;0.93;0.57;;;;;;;;;;1760289;79;26295;-35
2022/01/06 13:11:50;;;;;;;0.75;0.57;;;;;;;;;;1759611;80;26687;-35
2022/01/06 13:14:26;;;;;;;0.50;0.50;;;;;;;;;;1762123;80;26402;-31
2022/01/06 13:16:55;;;;;;;0.68;0.68;;;;;;;;;;1755860;80;26314;-33
2022/01/06 13:19:25;;;;;;;1.35;0.70;;;;;;;;;;1742026;80;26452;-34
2022/01/06 13:21:57;;;;;;;0.65;0.53;;;;;;;;;;1754344;80;26329;-31
2022/01/06 13:24:25;;;;;;;0.68;0.60;;;;;;;;;;1745622;80;26722;-37
2022/01/06 13:26:57;;;;;;;3.60;0.65;;;;;;;;;;1745805;80;26761;-32
2022/01/06 13:29:28;;;;;;;3.15;0.62;;;;;;;;;;1756531;80;26360;-36
2022/01/06 13:32:12;;;;;;;0.57;0.57;;;;;;;;;;1736764;80;26292;-32
2022/01/06 13:34:40;;;;;;;2.60;0.70;;;;;;;;;;1734985;82;26308;-36
2022/01/06 13:37:09;;;;;;;0.60;0.60;;;;;;;;;;1744639;80;26333;-33
2022/01/06 13:39:38;;;;;;;1.80;0.70;;;;;;;;;;1737550;80;26378;-35
2022/01/06 13:42:06;;;;;;;0.82;0.60;;;;;;;;;;1730635;80;27249;-33
2022/01/06 13:44:34;;;;;;;0.93;0.50;;;;;;;;;;1745677;80;26286;-33
2022/01/06 13:47:11;;;;;;;0.78;0.60;;;;;;;;;;1750270;80;26419;-36
2022/01/06 13:52:25;;;;;;;0.40;0.40;;;;;;;;;;1749520;80;26342;-34
2022/01/06 13:54:53;;;;;;;0.65;0.40;;;;;;;;;;1747947;80;26371;-33
2022/01/06 13:57:20;;;;;;;1.17;0.40;;;;;;;;;;1739060;81;26829;-33
2022/01/06 13:59:48;;;;;;;1.20;0.40;;;;;;;;;;1758133;80;26261;-34
2022/01/06 14:02:17;;;;;;;0.55;0.55;;;;;;;;;;1754079;80;26321;-39
2022/01/06 14:04:45;;;;;;;1.75;0.62;;;;;;;;;;1735583;80;26400;-36
2022/01/06 14:07:13;;;;;;;1.17;0.50;;;;;;;;;;1745729;80;26776;-37
2022/01/06 14:09:41;;;;;;;0.50;0.50;;;;;;;;;;1751358;80;26273;-33
2022/01/06 14:12:09;;;;;;;0.60;0.60;;;;;;;;;;1745787;82;26348;-36
2022/01/06 14:14:36;;;;;;;0.98;0.70;;;;;;;;;;1736227;82;26719;-33
2022/01/06 14:17:04;;;;;;;3.00;0.68;;;;;;;;;;1750101;80;26780;-33
2022/01/06 14:19:36;;;;;;;0.50;0.50;;;;;;;;;;1742371;79;26742;-32
2022/01/06 14:22:00;;;;;;;1.67;0.70;;;;;;;;;;1769567;80;26240;-34
2022/01/06 14:24:32;;;;;;;0.30;0.30;;;;;;;;;;1764898;80;26311;-31
2022/01/06 14:26:57;;;;;;;1.25;0.37;;;;;;;;;;1758164;80;26307;-33
2022/01/06 14:29:24;;;;;;;0.40;0.40;;;;;;;;;;1758105;80;26311;-33
2022/01/06 14:31:51;;;;;;;0.40;0.40;;;;;;;;;;1753951;79;26309;-32
2022/01/06 14:34:18;;;;;;;0.60;0.60;;;;;;;;;;1753129;79;26310;-36
2022/01/06 14:36:46;;;;;;;0.60;0.60;;;;;;;;;;1754947;79;26736;-32
2022/01/06 14:39:13;;;;;;;0.50;0.50;;;;;;;;;;1751795;79;26306;-33
2022/01/06 14:41:40;;;;;;;0.50;0.50;;;;;;;;;;1757816;80;26425;-35
2022/01/06 14:44:08;;;;;;;0.42;0.42;;;;;;;;;;1760596;78;27011;-38
2022/01/06 14:46:35;;;;;;;2.25;0.40;;;;;;;;;;1752152;79;26826;-33
2022/01/06 14:49:02;;;;;;;0.40;0.40;;;;;;;;;;1755604;80;26766;-32
2022/01/06 14:51:30;;;;;;;1.05;0.50;;;;;;;;;;1761895;80;26916;-36
2022/01/06 14:53:58;;;;;;;0.85;0.53;;;;;;;;;;1756470;80;26376;-34
2022/01/06 14:56:25;;;;;;;1.00;0.40;;;;;;;;;;1753943;79;26306;-35
2022/01/06 14:58:52;;;;;;;1.15;0.45;;;;;;;;;;1760200;79;26524;-34
2022/01/06 15:01:19;;;;;;;0.50;0.45;;;;;;;;;;1759396;79;26347;-34
2022/01/06 15:03:47;;;;;;;0.47;0.47;;;;;;;;;;1757123;80;26283;-35